Melbourne, Victoria

5:54 PM AEST on August 24, 2016 (GMT +1000)
Docklands Victoria | | Change Station

Elev 10 ft 37.81 °S, 144.94 °E | Updated 11 seconds ago

Mostly Cloudy
Mostly Cloudy
50.9 °F
Feels Like 50.9 °F
N
12.5
Wind Variable Wind from ESE

Today
High -- | Low -- °F
--% Chance of Precip.
Yesterday
High -- | Low -- °F
Precip. -- in
Pressure 29.92 in
Visibility 6.2 miles
Clouds Few 1600 ft
Scattered Clouds 1800 ft
Mostly Cloudy 5600 ft
Dew Point 41 °F
Humidity 68%
Rainfall 0.00 in
Snow Depth Not available.
6:53 AM 5:52 PM
Waning Gibbous, 59% visible
METAR YMML 240730Z 18009KT 9999 FEW016 SCT018 BKN056 09/06 Q1013 INTER 0830/1000 5000 SHRA BKN020
Pressure 29.92 in
Visibility 6.2 miles
Clouds Few 1600 ft
Scattered Clouds 1800 ft
Mostly Cloudy 5600 ft
Dew Point 41 °F
Humidity 68%
Rainfall 0.00 in
Snow Depth Not available.
6:53 AM 5:52 PM
Waning Gibbous, 59% visible
METAR YMML 240730Z 18009KT 9999 FEW016 SCT018 BKN056 09/06 Q1013 INTER 0830/1000 5000 SHRA BKN020

10-Day Weather Forecast

Almanac

Astronomy

Aug. 24, 2016 Rise Set
Actual Time
Civil Twilight
Nautical Twilight
Astronomical Twilight
Moon
Length of Visible Light
Length of Day
Tomorrow will be .
, % of the Moon is Illuminated

Today's Extremes

Country Highs Country Lows

Community

WunderPhotos

Upload Photos

1,934,554 photos uploaded!

WunderBlog® & News

Nearby

Air Quality

  Air Quality AQ Index Pollutant
Not available.

Snow Depth

Station Depth Elevation

Earthquake Activity

City Distance Mag. Time & Date
Minimum magnitude displayed is 2.5.

Coastal Water Temperatures

Place Temperature

Stations

Nearby Weather Stations

Station Location Temp. Windchill Dew Point Humidity Wind Precip. Elev Updated Type